Time;durP1;ratioP1;P1;durP2;ratioP2;P2;SDS_P1;SDS_P2;PMS_P1;PMS_P2;Temp;Humidity;BMP_temperature;BMP_pressure;BME280_temperature;BME280_humidity;BME280_pressure;Samples;Min_cycle;Max_cycle;Signal;HPM_P1;HPM_P2
2022/11/12 00:00:33;;;;;;;61.20;30.50;;;;;;;;;;2115168;28;20123;-45
2022/11/12 00:01:35;;;;;;;61.10;30.73;;;;;;;;;;2115267;28;20090;-45
2022/11/12 00:02:36;;;;;;;58.65;31.83;;;;;;;;;;2115063;28;20047;-46
2022/11/12 00:03:37;;;;;;;63.77;32.63;;;;;;;;;;2115022;28;20051;-46
2022/11/12 00:04:39;;;;;;;65.63;33.28;;;;;;;;;;2114723;28;20450;-49
2022/11/12 00:05:40;;;;;;;63.05;32.10;;;;;;;;;;2115363;28;20047;-42
2022/11/12 00:06:41;;;;;;;64.95;34.85;;;;;;;;;;2115051;28;20507;-42
2022/11/12 00:07:42;;;;;;;60.63;33.50;;;;;;;;;;2115039;28;20048;-42
2022/11/12 00:08:43;;;;;;;61.70;34.60;;;;;;;;;;2114935;28;20050;-42
2022/11/12 00:09:44;;;;;;;67.50;36.78;;;;;;;;;;2114989;28;20085;-42
2022/11/12 00:10:45;;;;;;;71.10;38.25;;;;;;;;;;2115033;28;20047;-41
2022/11/12 00:11:46;;;;;;;68.70;36.28;;;;;;;;;;2114842;28;20054;-42
2022/11/12 00:12:47;;;;;;;69.88;38.75;;;;;;;;;;2115027;28;20105;-41
2022/11/12 00:13:48;;;;;;;71.25;38.55;;;;;;;;;;2115060;28;20043;-42
2022/11/12 00:14:50;;;;;;;75.35;39.85;;;;;;;;;;2114991;28;20510;-41
2022/11/12 00:15:51;;;;;;;78.35;40.33;;;;;;;;;;2114985;28;20054;-41
2022/11/12 00:16:52;;;;;;;72.10;40.00;;;;;;;;;;2115330;28;20066;-42
2022/11/12 00:17:53;;;;;;;71.67;39.87;;;;;;;;;;2114980;28;20051;-42
2022/11/12 00:18:54;;;;;;;76.82;39.60;;;;;;;;;;2114914;28;20290;-42
2022/11/12 00:19:56;;;;;;;76.15;40.63;;;;;;;;;;2114891;28;20062;-42
2022/11/12 00:20:57;;;;;;;76.10;41.55;;;;;;;;;;2114950;28;20484;-41
2022/11/12 00:21:58;;;;;;;69.53;39.90;;;;;;;;;;2114923;28;20124;-42
2022/11/12 00:22:59;;;;;;;65.57;32.35;;;;;;;;;;2115148;28;20123;-41
2022/11/12 00:24:00;;;;;;;71.70;40.73;;;;;;;;;;2114612;28;20510;-42
2022/11/12 00:25:01;;;;;;;76.53;41.55;;;;;;;;;;2115064;28;20070;-42
2022/11/12 00:26:03;;;;;;;73.72;41.75;;;;;;;;;;2115089;28;20480;-46
2022/11/12 00:27:03;;;;;;;72.47;39.75;;;;;;;;;;2114911;28;20446;-46
2022/11/12 00:28:05;;;;;;;73.50;39.97;;;;;;;;;;2114980;28;20100;-46
2022/11/12 00:29:06;;;;;;;;;;;;;;;;;;2115483;28;20040;-49
2022/11/12 00:30:08;;;;;;;72.78;41.28;;;;;;;;;;2114883;28;20349;-45
2022/11/12 00:31:09;;;;;;;79.00;42.42;;;;;;;;;;2114893;28;20054;-46
2022/11/12 00:32:11;;;;;;;78.47;42.30;;;;;;;;;;2114826;28;20287;-45
2022/11/12 00:33:12;;;;;;;76.93;40.63;;;;;;;;;;2114863;28;20047;-47
2022/11/12 00:34:13;;;;;;;72.63;40.73;;;;;;;;;;2114905;28;20051;-48
2022/11/12 00:35:15;;;;;;;75.80;40.30;;;;;;;;;;2114970;28;20051;-45
2022/11/12 00:36:16;;;;;;;76.32;40.58;;;;;;;;;;2114803;28;20105;-45
2022/11/12 00:37:17;;;;;;;82.68;43.35;;;;;;;;;;2114774;28;20058;-45
2022/11/12 00:38:18;;;;;;;79.35;41.05;;;;;;;;;;2114852;28;20050;-46
2022/11/12 00:39:19;;;;;;;75.13;41.40;;;;;;;;;;2114986;28;20044;-45
2022/11/12 00:40:20;;;;;;;72.13;41.72;;;;;;;;;;2114833;28;20055;-45
2022/11/12 00:41:21;;;;;;;69.60;39.10;;;;;;;;;;2114929;28;20105;-46
2022/11/12 00:42:22;;;;;;;78.90;40.50;;;;;;;;;;2114708;28;20116;-47
2022/11/12 00:43:24;;;;;;;73.33;41.40;;;;;;;;;;2114967;28;20139;-46
2022/11/12 00:44:25;;;;;;;76.45;39.92;;;;;;;;;;2114711;28;20043;-45
2022/11/12 00:45:26;;;;;;;72.38;39.38;;;;;;;;;;2114744;28;20063;-45
2022/11/12 00:46:27;;;;;;;75.93;39.78;;;;;;;;;;2114755;28;20054;-45
2022/11/12 00:47:28;;;;;;;77.15;38.80;;;;;;;;;;2115180;28;20043;-46
2022/11/12 00:48:29;;;;;;;69.35;39.15;;;;;;;;;;2114940;28;20455;-47
2022/11/12 00:49:30;;;;;;;67.82;32.78;;;;;;;;;;2114904;28;20040;-47
2022/11/12 00:50:32;;;;;;;68.72;37.40;;;;;;;;;;2114857;28;20089;-45
2022/11/12 00:51:33;;;;;;;65.50;35.28;;;;;;;;;;2114667;28;20047;-45
2022/11/12 00:52:34;;;;;;;67.20;36.67;;;;;;;;;;2114753;28;20408;-49
2022/11/12 00:53:35;;;;;;;67.32;34.05;;;;;;;;;;2114911;28;20039;-46
2022/11/12 00:54:36;;;;;;;71.10;37.10;;;;;;;;;;2114789;28;20055;-46
2022/11/12 00:55:37;;;;;;;69.93;35.90;;;;;;;;;;2114827;28;20488;-45
2022/11/12 00:56:38;;;;;;;65.60;35.42;;;;;;;;;;2115079;28;20047;-41
2022/11/12 00:57:39;;;;;;;65.40;35.60;;;;;;;;;;2114747;28;20047;-41
2022/11/12 00:58:41;;;;;;;65.63;35.47;;;;;;;;;;2114606;28;20093;-42
2022/11/12 00:59:42;;;;;;;57.95;33.15;;;;;;;;;;2114870;28;20044;-42
2022/11/12 01:00:43;;;;;;;56.63;32.22;;;;;;;;;;2114599;28;20043;-42
2022/11/12 01:01:44;;;;;;;65.25;32.97;;;;;;;;;;2114778;28;20051;-42
2022/11/12 01:02:45;;;;;;;60.47;34.43;;;;;;;;;;2114720;28;20048;-42
2022/11/12 01:03:52;;;;;;;63.05;33.80;;;;;;;;;;2114700;28;20079;-42
2022/11/12 01:04:53;;;;;;;59.85;32.08;;;;;;;;;;2114541;28;20459;-42
2022/11/12 01:06:00;;;;;;;70.35;34.72;;;;;;;;;;2114656;28;20047;-42
2022/11/12 01:07:01;;;;;;;66.28;33.60;;;;;;;;;;2114696;28;20039;-42
2022/11/12 01:08:02;;;;;;;58.97;32.92;;;;;;;;;;2114748;28;20473;-42
2022/11/12 01:09:03;;;;;;;64.20;33.77;;;;;;;;;;2114659;28;20043;-42
2022/11/12 01:10:04;;;;;;;65.60;33.08;;;;;;;;;;2114745;28;20039;-42
2022/11/12 01:11:10;;;;;;;61.35;32.00;;;;;;;;;;2114595;28;20043;-42
2022/11/12 01:12:10;;;;;;;57.80;31.08;;;;;;;;;;2114901;28;20088;-42
2022/11/12 01:13:11;;;;;;;58.43;31.90;;;;;;;;;;2114820;28;20480;-42
2022/11/12 01:14:12;;;;;;;57.55;31.92;;;;;;;;;;2114497;28;20404;-42
2022/11/12 01:15:14;;;;;;;49.83;29.57;;;;;;;;;;2114648;28;20052;-41
2022/11/12 01:16:16;;;;;;;56.20;30.52;;;;;;;;;;2114616;28;20044;-42
2022/11/12 01:17:17;;;;;;;57.10;30.42;;;;;;;;;;2114666;28;20043;-42
2022/11/12 01:18:18;;;;;;;57.17;31.25;;;;;;;;;;2114693;28;20054;-47
2022/11/12 01:19:19;;;;;;;53.37;31.00;;;;;;;;;;2114730;28;20044;-46
2022/11/12 01:20:20;;;;;;;58.47;30.67;;;;;;;;;;2114651;28;20051;-45
2022/11/12 01:21:23;;;;;;;59.50;30.80;;;;;;;;;;2114699;28;20044;-45
2022/11/12 01:22:24;;;;;;;55.80;29.88;;;;;;;;;;2114629;28;20048;-46
2022/11/12 01:23:25;;;;;;;54.10;29.35;;;;;;;;;;2113746;28;20089;-46
2022/11/12 01:24:26;;;;;;;58.17;31.65;;;;;;;;;;2114625;28;20052;-48
2022/11/12 01:25:27;;;;;;;49.00;22.98;;;;;;;;;;2114468;28;20044;-46
2022/11/12 01:26:28;;;;;;;57.13;29.38;;;;;;;;;;2114884;28;20089;-46
2022/11/12 01:27:29;;;;;;;54.47;29.20;;;;;;;;;;2114503;28;20096;-45
2022/11/12 01:28:30;;;;;;;53.45;27.23;;;;;;;;;;2114564;28;20070;-46
2022/11/12 01:29:31;;;;;;;51.22;22.83;;;;;;;;;;2114809;28;20507;-41
2022/11/12 01:30:32;;;;;;;58.92;29.48;;;;;;;;;;2114678;28;20101;-42
2022/11/12 01:31:34;;;;;;;59.35;28.52;;;;;;;;;;2114571;28;20060;-42
2022/11/12 01:32:36;;;;;;;53.15;28.02;;;;;;;;;;2114618;28;20051;-42
2022/11/12 01:33:37;;;;;;;57.20;29.05;;;;;;;;;;2114413;28;20055;-42
2022/11/12 01:34:38;;;;;;;52.85;26.05;;;;;;;;;;2114611;28;20047;-41
2022/11/12 01:35:39;;;;;;;59.45;29.10;;;;;;;;;;2114509;28;20555;-41
2022/11/12 01:36:42;;;;;;;53.10;27.60;;;;;;;;;;2114449;28;20048;-42
2022/11/12 01:37:43;;;;;;;53.25;27.92;;;;;;;;;;2114435;28;20058;-42
2022/11/12 01:38:44;;;;;;;54.95;27.52;;;;;;;;;;2114374;28;20139;-41
2022/11/12 01:39:46;;;;;;;49.15;27.05;;;;;;;;;;2121282;28;20047;-42
2022/11/12 01:40:46;;;;;;;55.38;28.95;;;;;;;;;;2122962;28;20095;-42
2022/11/12 01:41:48;;;;;;;53.42;27.10;;;;;;;;;;2123077;28;20051;-42
2022/11/12 01:42:50;;;;;;;55.50;27.67;;;;;;;;;;2122825;28;20486;-42
2022/11/12 01:44:05;;;;;;;54.33;28.42;;;;;;;;;;2123190;28;20051;-42
2022/11/12 01:45:14;;;;;;;47.40;26.30;;;;;;;;;;2123116;28;20419;-48
2022/11/12 01:46:19;;;;;;;51.42;27.10;;;;;;;;;;2123019;28;20095;-48
2022/11/12 01:47:21;;;;;;;53.78;27.30;;;;;;;;;;2122876;28;20047;-47
2022/11/12 01:48:24;;;;;;;56.25;28.77;;;;;;;;;;2122962;28;20054;-47
2022/11/12 01:49:28;;;;;;;48.55;27.23;;;;;;;;;;2122943;28;20157;-46
2022/11/12 01:50:30;;;;;;;51.83;28.77;;;;;;;;;;2122826;28;20145;-49
2022/11/12 01:51:33;;;;;;;51.92;27.00;;;;;;;;;;2122961;28;20050;-51
2022/11/12 01:52:35;;;;;;;54.65;29.33;;;;;;;;;;2122895;28;20047;-47
2022/11/12 01:53:41;;;;;;;56.90;28.27;;;;;;;;;;2122834;28;20043;-46
2022/11/12 01:54:43;;;;;;;57.70;28.15;;;;;;;;;;2122811;28;20047;-46
2022/11/12 01:55:45;;;;;;;54.55;28.95;;;;;;;;;;2122822;28;20072;-47
2022/11/12 01:56:47;;;;;;;47.88;25.80;;;;;;;;;;2122545;28;20043;-47
2022/11/12 01:57:49;;;;;;;54.90;28.95;;;;;;;;;;2114332;28;20051;-47
2022/11/12 01:58:52;;;;;;;57.17;29.90;;;;;;;;;;2114166;28;20488;-47
2022/11/12 01:59:55;;;;;;;51.88;27.92;;;;;;;;;;2114449;28;20054;-46
2022/11/12 02:00:56;;;;;;;53.63;28.00;;;;;;;;;;2114228;28;20044;-46
2022/11/12 02:01:57;;;;;;;54.40;29.30;;;;;;;;;;2114623;28;20047;-42
2022/11/12 02:02:59;;;;;;;54.90;29.40;;;;;;;;;;2114546;28;20267;-41
2022/11/12 02:04:00;;;;;;;;;;;;;;;;;;2114738;28;20043;-42
2022/11/12 02:05:01;;;;;;;57.75;28.92;;;;;;;;;;2114469;28;19958;-42
2022/11/12 02:06:05;;;;;;;58.60;32.35;;;;;;;;;;2114430;28;20039;-42
2022/11/12 02:07:06;;;;;;;55.15;29.70;;;;;;;;;;2114570;28;20043;-42
2022/11/12 02:08:09;;;;;;;60.08;28.95;;;;;;;;;;2122471;28;20047;-45
2022/11/12 02:09:12;;;;;;;58.45;30.98;;;;;;;;;;2122789;28;20043;-46
2022/11/12 02:10:13;;;;;;;;;;;;;;;;;;2122970;28;20043;-41
2022/11/12 02:11:15;;;;;;;53.45;27.38;;;;;;;;;;2122137;28;20414;-41
2022/11/12 02:14:51;;;;;;;51.47;27.33;;;;;;;;;;2122720;28;20050;-42
2022/11/12 02:15:52;;;;;;;57.55;28.30;;;;;;;;;;2122703;28;20051;-41
2022/11/12 02:16:53;;;;;;;51.58;27.92;;;;;;;;;;2122398;28;20120;-42
2022/11/12 02:17:54;;;;;;;57.95;28.45;;;;;;;;;;2122188;28;20039;-42
2022/11/12 02:18:55;;;;;;;53.00;28.67;;;;;;;;;;2122457;28;20137;-46
2022/11/12 02:19:57;;;;;;;52.17;26.52;;;;;;;;;;2122740;28;20092;-42
2022/11/12 02:21:02;;;;;;;49.75;27.52;;;;;;;;;;2122711;28;20054;-42
2022/11/12 02:22:03;;;;;;;47.90;26.83;;;;;;;;;;2122709;28;20039;-42
2022/11/12 02:23:06;;;;;;;49.00;27.58;;;;;;;;;;2121799;28;20377;-45
2022/11/12 02:24:21;;;;;;;45.53;26.48;;;;;;;;;;2114168;28;20104;-42
2022/11/12 02:25:23;;;;;;;48.25;27.90;;;;;;;;;;2113258;28;20048;-46
2022/11/12 02:26:24;;;;;;;;;;;;;;;;;;2114762;28;20047;-42
2022/11/12 02:27:26;;;;;;;48.70;26.50;;;;;;;;;;2114192;28;19919;-45
2022/11/12 02:28:27;;;;;;;48.95;27.35;;;;;;;;;;2114036;28;20093;-42
2022/11/12 02:29:29;;;;;;;;;;;;;;;;;;2114707;28;20059;-42
2022/11/12 02:30:30;;;;;;;51.53;24.35;;;;;;;;;;2114230;28;20356;-42
2022/11/12 02:31:31;;;;;;;48.38;25.10;;;;;;;;;;2114231;28;20051;-42
2022/11/12 02:32:32;;;;;;;50.40;25.90;;;;;;;;;;2114103;28;20484;-47
2022/11/12 02:33:33;;;;;;;48.60;21.85;;;;;;;;;;2114016;28;20051;-43
2022/11/12 02:34:34;;;;;;;56.47;28.95;;;;;;;;;;2114066;28;20496;-47
2022/11/12 02:35:35;;;;;;;60.05;27.77;;;;;;;;;;2115084;28;20047;-46
2022/11/12 02:36:36;;;;;;;56.13;28.17;;;;;;;;;;2115583;28;20043;-46
2022/11/12 02:37:38;;;;;;;56.73;29.93;;;;;;;;;;2115653;28;20058;-42
2022/11/12 02:38:39;;;;;;;55.25;29.00;;;;;;;;;;2115681;28;20044;-42
2022/11/12 02:39:40;;;;;;;64.70;28.43;;;;;;;;;;2115541;28;20043;-41
2022/11/12 02:40:41;;;;;;;55.15;27.63;;;;;;;;;;2115629;28;20044;-42
2022/11/12 02:41:42;;;;;;;54.28;28.85;;;;;;;;;;2115606;28;20484;-42
2022/11/12 02:42:43;;;;;;;56.58;29.13;;;;;;;;;;2115463;28;20051;-42
2022/11/12 02:43:44;;;;;;;58.28;30.58;;;;;;;;;;2115543;28;20101;-42
2022/11/12 02:44:45;;;;;;;54.83;29.65;;;;;;;;;;2115450;28;20046;-41
2022/11/12 02:45:46;;;;;;;56.13;30.52;;;;;;;;;;2115585;28;20051;-42
2022/11/12 02:46:47;;;;;;;51.28;28.90;;;;;;;;;;2115545;28;20043;-42
2022/11/12 02:47:48;;;;;;;43.57;22.30;;;;;;;;;;2115539;28;20147;-45
2022/11/12 02:48:49;;;;;;;54.22;29.08;;;;;;;;;;2115549;28;20048;-42
2022/11/12 02:49:50;;;;;;;54.47;29.43;;;;;;;;;;2115489;28;20047;-41
2022/11/12 02:50:51;;;;;;;54.35;29.15;;;;;;;;;;2115536;28;20040;-42
2022/11/12 02:51:52;;;;;;;51.42;28.27;;;;;;;;;;2115795;28;20047;-46
2022/11/12 02:52:54;;;;;;;49.70;27.23;;;;;;;;;;2115516;28;20044;-46
2022/11/12 02:53:55;;;;;;;54.67;27.92;;;;;;;;;;2115378;28;20043;-42
2022/11/12 02:54:56;;;;;;;49.92;26.98;;;;;;;;;;2115540;28;20040;-42
2022/11/12 02:55:57;;;;;;;53.17;28.08;;;;;;;;;;2115553;28;20399;-46
2022/11/12 02:56:58;;;;;;;45.38;26.45;;;;;;;;;;2115380;28;20446;-42
2022/11/12 02:57:59;;;;;;;47.38;26.17;;;;;;;;;;2115593;28;20047;-44
2022/11/12 02:59:00;;;;;;;49.25;26.75;;;;;;;;;;2115388;28;20047;-42
2022/11/12 03:00:01;;;;;;;47.25;26.58;;;;;;;;;;2115478;28;20071;-42
2022/11/12 03:01:02;;;;;;;46.95;24.65;;;;;;;;;;2115458;28;20043;-42
2022/11/12 03:02:03;;;;;;;47.40;19.87;;;;;;;;;;2115421;28;20116;-45
2022/11/12 03:03:04;;;;;;;42.55;25.55;;;;;;;;;;2115588;28;20052;-42
2022/11/12 03:04:05;;;;;;;45.03;25.42;;;;;;;;;;2115426;28;20047;-45
2022/11/12 03:05:07;;;;;;;47.00;24.48;;;;;;;;;;2115450;28;20051;-41
2022/11/12 03:06:08;;;;;;;54.33;25.23;;;;;;;;;;2115471;28;20051;-42
2022/11/12 03:07:09;;;;;;;48.40;24.20;;;;;;;;;;2115523;28;20039;-45
2022/11/12 03:08:10;;;;;;;37.75;21.23;;;;;;;;;;2115450;28;20047;-45
2022/11/12 03:09:11;;;;;;;41.88;24.58;;;;;;;;;;2115271;28;20400;-46
2022/11/12 03:10:12;;;;;;;49.60;26.10;;;;;;;;;;2115492;28;20044;-41
2022/11/12 03:11:14;;;;;;;49.88;25.20;;;;;;;;;;2115290;28;20044;-42
2022/11/12 03:12:16;;;;;;;46.25;24.27;;;;;;;;;;2118422;28;20092;-42
2022/11/12 03:13:17;;;;;;;48.03;26.15;;;;;;;;;;2123686;28;20047;-47
2022/11/12 03:14:18;;;;;;;45.20;25.23;;;;;;;;;;2123934;28;20047;-46
2022/11/12 03:15:19;;;;;;;53.70;26.08;;;;;;;;;;2123829;28;20043;-46
2022/11/12 03:16:20;;;;;;;48.43;24.77;;;;;;;;;;2123824;28;20472;-42
2022/11/12 03:17:21;;;;;;;44.92;23.85;;;;;;;;;;2123837;28;20051;-42
2022/11/12 03:18:22;;;;;;;49.33;24.17;;;;;;;;;;2123840;28;20134;-46
2022/11/12 03:19:23;;;;;;;54.25;27.00;;;;;;;;;;2123868;28;20051;-46
2022/11/12 03:20:25;;;;;;;46.38;26.60;;;;;;;;;;2123796;28;20078;-46
2022/11/12 03:21:25;;;;;;;51.15;25.50;;;;;;;;;;2123924;28;20167;-45
2022/11/12 03:22:27;;;;;;;44.17;25.30;;;;;;;;;;2123759;28;20508;-45
2022/11/12 03:23:28;;;;;;;53.90;24.45;;;;;;;;;;2119691;28;20047;-42
2022/11/12 03:24:29;;;;;;;50.78;25.13;;;;;;;;;;2115245;28;20040;-44
2022/11/12 03:25:30;;;;;;;49.22;27.10;;;;;;;;;;2115118;28;20054;-46
2022/11/12 03:26:31;;;;;;;56.80;25.67;;;;;;;;;;2115246;28;20090;-46
2022/11/12 03:27:36;;;;;;;51.65;27.33;;;;;;;;;;2115380;28;20122;-42
2022/11/12 03:28:37;;;;;;;51.23;27.37;;;;;;;;;;2115278;28;20043;-47
2022/11/12 03:29:38;;;;;;;51.80;25.08;;;;;;;;;;2115205;28;20048;-42
2022/11/12 03:30:40;;;;;;;57.33;24.42;;;;;;;;;;2115270;28;20044;-42
2022/11/12 03:31:41;;;;;;;49.42;26.83;;;;;;;;;;2115366;28;20047;-42
2022/11/12 03:32:42;;;;;;;54.13;29.17;;;;;;;;;;2115370;28;20059;-46
2022/11/12 03:33:43;;;;;;;50.90;27.35;;;;;;;;;;2115076;28;20043;-42
2022/11/12 03:34:44;;;;;;;54.42;28.17;;;;;;;;;;2115110;28;20479;-46
2022/11/12 03:35:45;;;;;;;51.30;27.35;;;;;;;;;;2115272;28;20047;-42
2022/11/12 03:36:46;;;;;;;48.72;27.98;;;;;;;;;;2115321;28;20044;-46
2022/11/12 03:37:47;;;;;;;54.73;28.50;;;;;;;;;;2115232;28;20515;-42
2022/11/12 03:38:49;;;;;;;61.38;28.00;;;;;;;;;;2115168;28;20051;-45
2022/11/12 03:39:50;;;;;;;53.05;27.35;;;;;;;;;;2115228;28;20056;-42
2022/11/12 03:40:51;;;;;;;51.42;27.40;;;;;;;;;;2115298;28;20044;-41
2022/11/12 03:41:52;;;;;;;53.73;28.13;;;;;;;;;;2115111;28;20507;-42
2022/11/12 03:42:53;;;;;;;53.75;24.90;;;;;;;;;;2115126;28;20377;-42
2022/11/12 03:43:54;;;;;;;51.20;26.70;;;;;;;;;;2115115;28;20059;-42
2022/11/12 03:44:55;;;;;;;51.20;27.83;;;;;;;;;;2114987;28;20503;-42
2022/11/12 03:45:56;;;;;;;42.15;19.90;;;;;;;;;;2114691;28;20048;-42
2022/11/12 03:46:57;;;;;;;43.63;25.40;;;;;;;;;;2115057;28;20057;-42
2022/11/12 03:47:58;;;;;;;49.53;26.60;;;;;;;;;;2115208;28;20047;-45
2022/11/12 03:49:01;;;;;;;46.30;27.42;;;;;;;;;;2115041;28;20044;-45
2022/11/12 03:50:02;;;;;;;52.63;28.95;;;;;;;;;;2115092;28;20047;-42
2022/11/12 03:51:03;;;;;;;51.63;28.23;;;;;;;;;;2115070;28;20397;-42
2022/11/12 03:52:04;;;;;;;47.03;28.07;;;;;;;;;;2115383;28;20100;-46
2022/11/12 03:53:05;;;;;;;51.72;27.05;;;;;;;;;;2115034;28;20550;-45
2022/11/12 03:54:07;;;;;;;58.50;28.93;;;;;;;;;;2115154;28;20043;-42
2022/11/12 03:55:08;;;;;;;45.25;27.60;;;;;;;;;;2115160;28;20268;-45
2022/11/12 03:56:09;;;;;;;45.90;26.30;;;;;;;;;;2115055;28;20047;-42
2022/11/12 03:57:10;;;;;;;43.50;21.55;;;;;;;;;;2115020;28;20047;-41
2022/11/12 03:58:11;;;;;;;51.40;27.48;;;;;;;;;;2115069;28;20072;-46
2022/11/12 03:59:12;;;;;;;50.22;26.42;;;;;;;;;;2115031;28;20043;-46
2022/11/12 04:00:14;;;;;;;53.97;27.88;;;;;;;;;;2114998;28;20132;-42
2022/11/12 04:01:15;;;;;;;53.45;28.73;;;;;;;;;;2115132;28;20043;-46
2022/11/12 04:02:16;;;;;;;47.77;28.60;;;;;;;;;;2115159;28;20054;-45
2022/11/12 04:03:17;;;;;;;54.80;27.92;;;;;;;;;;2114895;28;20320;-45
2022/11/12 04:04:18;;;;;;;53.78;28.38;;;;;;;;;;2115117;28;20051;-45
2022/11/12 04:09:18;;;;;;;46.85;27.33;;;;;;;;;;2114979;28;20401;-45
2022/11/12 04:10:19;;;;;;;51.33;28.67;;;;;;;;;;2114966;28;20044;-42
2022/11/12 04:11:20;;;;;;;53.40;26.63;;;;;;;;;;2114930;28;20052;-46
2022/11/12 04:13:41;;;;;;;53.33;28.33;;;;;;;;;;2114943;28;20044;-44
2022/11/12 04:14:42;;;;;;;53.30;26.60;;;;;;;;;;2115032;28;20055;-42
2022/11/12 04:15:43;;;;;;;52.90;29.00;;;;;;;;;;2115141;28;20043;-42
2022/11/12 04:22:03;;;;;;;47.00;28.23;;;;;;;;;;2114232;28;20525;-45
2022/11/12 04:23:04;;;;;;;51.17;28.80;;;;;;;;;;2114776;28;20040;-45
2022/11/12 04:24:05;;;;;;;56.03;30.07;;;;;;;;;;2114832;28;20492;-42
2022/11/12 04:26:26;;;;;;;48.13;27.30;;;;;;;;;;2114988;28;20055;-45
2022/11/12 04:27:28;;;;;;;49.63;28.90;;;;;;;;;;2114852;28;20047;-42
2022/11/12 04:28:29;;;;;;;45.17;28.58;;;;;;;;;;2114931;28;20047;-43
2022/11/12 04:30:49;;;;;;;50.65;28.58;;;;;;;;;;2114849;28;20043;-42
2022/11/12 04:31:50;;;;;;;51.97;28.53;;;;;;;;;;2114844;28;20043;-45
2022/11/12 04:32:53;;;;;;;47.25;28.23;;;;;;;;;;2114892;28;20506;-45
2022/11/12 04:33:54;;;;;;;49.92;28.38;;;;;;;;;;2114725;28;20051;-42
2022/11/12 04:34:55;;;;;;;51.20;28.57;;;;;;;;;;2114797;28;20408;-45
2022/11/12 04:35:56;;;;;;;55.03;29.13;;;;;;;;;;2114698;28;20040;-46
2022/11/12 04:36:57;;;;;;;47.63;24.53;;;;;;;;;;2114946;28;20078;-45
2022/11/12 04:37:59;;;;;;;53.20;27.85;;;;;;;;;;2114939;28;20047;-45
2022/11/12 04:38:59;;;;;;;46.22;28.40;;;;;;;;;;2114725;28;20044;-42
2022/11/12 04:44:58;;;;;;;38.40;20.73;;;;;;;;;;2114854;28;20048;-45
2022/11/12 04:45:20;;;;;;;50.10;26.88;;;;;;;;;;2114730;28;20054;-45
2022/11/12 04:46:21;;;;;;;49.75;27.92;;;;;;;;;;2121855;28;20055;-42
2022/11/12 04:47:22;;;;;;;54.93;28.77;;;;;;;;;;2123353;28;20484;-46
2022/11/12 04:48:24;;;;;;;46.10;27.35;;;;;;;;;;2123185;28;20051;-46
2022/11/12 04:49:25;;;;;;;51.53;28.60;;;;;;;;;;2123111;28;20587;-42
2022/11/12 04:50:27;;;;;;;53.40;27.97;;;;;;;;;;2123154;28;20055;-42
2022/11/12 04:52:47;;;;;;;48.88;28.33;;;;;;;;;;2123308;28;20047;-42
2022/11/12 04:53:48;;;;;;;54.38;27.55;;;;;;;;;;2123162;28;20047;-46
2022/11/12 04:54:49;;;;;;;51.13;28.17;;;;;;;;;;2123169;28;20078;-42
2022/11/12 04:55:51;;;;;;;44.47;27.45;;;;;;;;;;2123307;28;20047;-42
2022/11/12 04:56:53;;;;;;;46.30;27.33;;;;;;;;;;2123218;28;20040;-43
2022/11/12 04:57:54;;;;;;;48.22;28.52;;;;;;;;;;2122308;27;20054;-42
2022/11/12 04:59:01;;;;;;;48.78;27.98;;;;;;;;;;2123062;28;20108;-45
2022/11/12 05:00:03;;;;;;;51.80;28.17;;;;;;;;;;2123316;28;20082;-42
2022/11/12 05:01:03;;;;;;;;;;;;;;;;;;2123594;28;20047;-42
2022/11/12 05:02:05;;;;;;;48.42;26.67;;;;;;;;;;2123126;28;19929;-42
2022/11/12 05:03:05;;;;;;;48.47;27.00;;;;;;;;;;2123166;28;20043;-46
2022/11/12 05:04:07;;;;;;;47.55;29.30;;;;;;;;;;2122995;28;20455;-42
2022/11/12 05:05:08;;;;;;;47.80;28.40;;;;;;;;;;2123028;28;20039;-45
2022/11/12 05:07:25;;;;;;;48.75;28.05;;;;;;;;;;2122272;28;20407;-45
2022/11/12 05:08:26;;;;;;;55.47;28.85;;;;;;;;;;2123094;28;20051;-45
2022/11/12 05:09:28;;;;;;;52.92;27.52;;;;;;;;;;2123076;28;20495;-42
2022/11/12 05:10:29;;;;;;;50.40;28.73;;;;;;;;;;2122977;28;20043;-42
2022/11/12 05:11:30;;;;;;;51.20;28.20;;;;;;;;;;2123177;28;20512;-45
2022/11/12 05:12:32;;;;;;;47.33;27.95;;;;;;;;;;2123004;28;20043;-45
2022/11/12 05:13:33;;;;;;;54.17;29.67;;;;;;;;;;2122884;28;20062;-45
2022/11/12 05:14:34;;;;;;;47.85;27.75;;;;;;;;;;2123023;28;20051;-47
2022/11/12 05:15:35;;;;;;;45.08;28.20;;;;;;;;;;2123102;28;20054;-43
2022/11/12 05:16:36;;;;;;;52.45;29.60;;;;;;;;;;2123103;28;20051;-46
2022/11/12 05:17:41;;;;;;;56.95;29.08;;;;;;;;;;2122951;28;20047;-45
2022/11/12 05:18:41;;;;;;;47.22;28.48;;;;;;;;;;2122902;28;20487;-46
2022/11/12 05:19:43;;;;;;;53.40;29.23;;;;;;;;;;2123064;28;20046;-42
2022/11/12 05:20:43;;;;;;;48.25;27.27;;;;;;;;;;2123094;28;20508;-43
2022/11/12 05:23:04;;;;;;;43.65;26.38;;;;;;;;;;2122395;28;20050;-45
2022/11/12 05:24:08;;;;;;;47.80;27.73;;;;;;;;;;2114647;28;20127;-42
2022/11/12 05:25:29;;;;;;;44.47;25.50;;;;;;;;;;2114343;28;20043;-42
2022/11/12 06:25:26;;;;;;;58.11;34.92;;;;;;;;;;4259670;27;20327;-43
2022/11/12 06:26:28;;;;;;;51.58;32.95;;;;;;;;;;2130094;27;20047;-43
2022/11/12 06:27:29;;;;;;;54.42;33.22;;;;;;;;;;2130260;27;20047;-43
2022/11/12 06:28:30;;;;;;;51.15;33.40;;;;;;;;;;2130787;27;20043;-43
2022/11/12 06:29:32;;;;;;;54.83;31.77;;;;;;;;;;2130144;27;20054;-42
2022/11/12 06:30:33;;;;;;;52.67;32.22;;;;;;;;;;2129840;27;20376;-43
2022/11/12 06:31:34;;;;;;;53.73;32.47;;;;;;;;;;2130099;27;20078;-42
2022/11/12 06:32:35;;;;;;;49.50;32.13;;;;;;;;;;2129747;27;20039;-42
2022/11/12 06:33:36;;;;;;;59.80;33.35;;;;;;;;;;2129702;27;20123;-43
2022/11/12 06:34:37;;;;;;;53.95;32.83;;;;;;;;;;2130068;27;20551;-46
2022/11/12 06:35:38;;;;;;;56.50;33.10;;;;;;;;;;2129840;27;20096;-45
2022/11/12 06:36:43;;;;;;;59.67;34.55;;;;;;;;;;2129831;27;20050;-46
2022/11/12 06:37:45;;;;;;;49.03;30.58;;;;;;;;;;2129951;27;20046;-46
2022/11/12 06:38:46;;;;;;;53.13;31.50;;;;;;;;;;2129870;27;20061;-45
2022/11/12 06:39:47;;;;;;;51.50;32.55;;;;;;;;;;2130252;27;20096;-46
2022/11/12 06:40:49;;;;;;;58.30;34.03;;;;;;;;;;2130081;27;20047;-42
2022/11/12 06:41:50;;;;;;;59.85;35.20;;;;;;;;;;2129894;27;20441;-42
2022/11/12 06:42:55;;;;;;;55.03;31.30;;;;;;;;;;2129808;27;20107;-42
2022/11/12 06:43:56;;;;;;;56.05;34.17;;;;;;;;;;2129808;27;20403;-43
2022/11/12 06:44:57;;;;;;;57.27;35.33;;;;;;;;;;2129906;27;20043;-42
2022/11/12 06:45:59;;;;;;;53.65;34.35;;;;;;;;;;2129984;27;20047;-47
2022/11/12 06:47:01;;;;;;;51.40;32.65;;;;;;;;;;2128881;27;20043;-45
2022/11/12 06:48:02;;;;;;;55.88;34.15;;;;;;;;;;2129124;27;20140;-47
2022/11/12 06:49:03;;;;;;;57.25;33.78;;;;;;;;;;2129549;27;20121;-45
2022/11/12 06:50:05;;;;;;;50.70;32.60;;;;;;;;;;2129796;27;20050;-45
2022/11/12 06:51:07;;;;;;;51.78;31.98;;;;;;;;;;2129881;27;20047;-45
2022/11/12 06:52:08;;;;;;;47.95;31.50;;;;;;;;;;2130111;27;20043;-42
2022/11/12 06:53:17;;;;;;;50.80;30.85;;;;;;;;;;2130071;27;20043;-43
2022/11/12 06:54:17;;;;;;;55.33;31.38;;;;;;;;;;2129789;27;20055;-42
2022/11/12 06:55:19;;;;;;;60.65;33.60;;;;;;;;;;2129818;27;20051;-43
2022/11/12 06:56:20;;;;;;;51.70;30.00;;;;;;;;;;2129812;27;20088;-42
2022/11/12 06:57:21;;;;;;;47.47;28.95;;;;;;;;;;2129863;27;20043;-43
2022/11/12 06:58:22;;;;;;;45.33;27.77;;;;;;;;;;2129635;27;20483;-42
2022/11/12 06:59:24;;;;;;;40.22;26.50;;;;;;;;;;2129745;27;20058;-43
2022/11/12 07:00:25;;;;;;;47.25;29.02;;;;;;;;;;2130002;27;20053;-47
2022/11/12 07:01:26;;;;;;;44.47;27.08;;;;;;;;;;2129820;27;20122;-47
2022/11/12 07:02:27;;;;;;;44.20;27.35;;;;;;;;;;2129798;27;20407;-45
2022/11/12 07:03:28;;;;;;;45.73;28.00;;;;;;;;;;2130222;27;20070;-43
2022/11/12 07:04:29;;;;;;;49.42;29.40;;;;;;;;;;2129768;27;20046;-43
2022/11/12 07:05:30;;;;;;;45.25;27.98;;;;;;;;;;2129660;27;20047;-42
2022/11/12 07:06:32;;;;;;;42.50;27.90;;;;;;;;;;2129568;27;20543;-42
2022/11/12 07:07:33;;;;;;;44.78;28.35;;;;;;;;;;2130007;27;20047;-45
2022/11/12 07:08:35;;;;;;;45.10;29.27;;;;;;;;;;2129968;27;20292;-45
2022/11/12 07:09:35;;;;;;;39.60;26.45;;;;;;;;;;2129666;27;20131;-45
2022/11/12 07:10:37;;;;;;;39.58;25.90;;;;;;;;;;2129662;27;20049;-45
2022/11/12 07:11:38;;;;;;;40.65;27.02;;;;;;;;;;2129869;27;20434;-45
2022/11/12 07:12:39;;;;;;;45.30;27.73;;;;;;;;;;2129611;27;20407;-47
2022/11/12 07:13:41;;;;;;;45.15;27.40;;;;;;;;;;2129642;27;20548;-45
2022/11/12 07:14:41;;;;;;;40.00;26.40;;;;;;;;;;2129717;27;20054;-46
2022/11/12 07:15:43;;;;;;;40.75;26.52;;;;;;;;;;2129761;27;20403;-46
2022/11/12 07:16:43;;;;;;;43.28;27.92;;;;;;;;;;2129721;27;20054;-46
2022/11/12 07:17:45;;;;;;;44.07;26.67;;;;;;;;;;2129840;27;20051;-45
2022/11/12 07:18:46;;;;;;;47.30;27.00;;;;;;;;;;2129491;27;20619;-45
2022/11/12 07:19:47;;;;;;;41.08;25.58;;;;;;;;;;2129895;27;20411;-46
2022/11/12 07:20:48;;;;;;;42.50;26.67;;;;;;;;;;2129750;27;20075;-45
2022/11/12 07:21:49;;;;;;;41.13;27.05;;;;;;;;;;2129571;27;20043;-47